createdAt,value
2023-05-21T00:00:33.326Z,61.75
2023-05-21T00:03:21.334Z,65.30
2023-05-21T00:05:50.370Z,59.26
2023-05-21T00:08:18.321Z,55.30
2023-05-21T00:10:46.002Z,57.09
2023-05-21T00:13:13.649Z,59.41
2023-05-21T00:15:41.450Z,61.16
2023-05-21T00:18:09.168Z,64.57
2023-05-21T00:20:37.370Z,60.00
2023-05-21T00:23:05.531Z,55.06
2023-05-21T00:25:33.330Z,56.56
2023-05-21T00:28:01.475Z,58.96
2023-05-21T00:30:29.161Z,60.88
2023-05-21T00:32:59.085Z,62.55
2023-05-21T00:35:26.903Z,64.97
2023-05-21T00:37:54.560Z,58.13
2023-05-21T00:40:22.435Z,55.14
2023-05-21T00:42:50.129Z,57.37
2023-05-21T00:45:17.860Z,59.59
2023-05-21T00:47:46.018Z,61.29
2023-05-21T00:50:15.344Z,64.99
2023-05-21T00:52:43.165Z,60.00
2023-05-21T00:55:11.203Z,55.00
2023-05-21T00:57:38.874Z,56.78
2023-05-21T01:00:10.925Z,59.34
2023-05-21T01:02:41.494Z,61.16
2023-05-21T01:05:09.388Z,64.90
2023-05-21T01:07:37.052Z,59.98
2023-05-21T01:10:04.809Z,54.86
2023-05-21T01:12:32.589Z,56.54
2023-05-21T01:15:00.233Z,59.15
2023-05-21T01:17:27.881Z,61.20
2023-05-21T01:19:55.614Z,64.73
2023-05-21T01:22:25.206Z,60.11
2023-05-21T01:24:53.242Z,54.92
2023-05-21T01:27:21.218Z,56.58
2023-05-21T01:29:48.879Z,58.95
2023-05-21T01:32:16.559Z,60.75
2023-05-21T01:34:44.235Z,62.42
2023-05-21T01:37:11.902Z,65.21
2023-05-21T01:39:39.570Z,58.22
2023-05-21T01:42:07.285Z,55.07
2023-05-21T01:44:34.944Z,57.15
2023-05-21T01:47:02.585Z,59.46
2023-05-21T01:49:30.242Z,61.21
2023-05-21T01:51:57.886Z,64.78
2023-05-21T01:54:25.557Z,59.78
2023-05-21T01:56:53.255Z,54.56
2023-05-21T01:59:20.954Z,56.30
2023-05-21T02:01:48.651Z,58.77
2023-05-21T02:04:16.365Z,60.75
2023-05-21T02:06:44.647Z,62.34
2023-05-21T02:09:12.325Z,65.27
2023-05-21T02:11:40.149Z,58.24
2023-05-21T02:14:10.578Z,54.65
2023-05-21T02:16:38.627Z,56.95
2023-05-21T02:19:07.116Z,59.18
2023-05-21T02:21:34.995Z,60.84
2023-05-21T02:24:02.732Z,62.25
2023-05-21T02:26:30.524Z,65.84
2023-05-21T02:28:58.492Z,59.40
2023-05-21T02:31:26.374Z,54.57
2023-05-21T02:33:54.200Z,56.14
2023-05-21T02:36:22.094Z,58.49
2023-05-21T02:38:50.268Z,60.53
2023-05-21T02:41:18.042Z,61.85
2023-05-21T02:43:45.795Z,65.51
2023-05-21T02:46:13.724Z,59.36
2023-05-21T02:48:41.640Z,54.50
2023-05-21T02:51:09.393Z,56.21
2023-05-21T02:53:37.163Z,58.58
2023-05-21T02:56:05.129Z,60.37
2023-05-21T02:58:33.713Z,61.87
2023-05-21T03:01:01.944Z,65.45
2023-05-21T03:03:29.969Z,59.70
2023-05-21T03:05:58.945Z,54.19
2023-05-21T03:08:26.858Z,55.86
2023-05-21T03:10:55.391Z,58.30
2023-05-21T03:13:23.419Z,60.30
2023-05-21T03:15:51.436Z,61.78
2023-05-21T03:18:19.200Z,65.62
2023-05-21T03:20:46.912Z,59.91
2023-05-21T03:23:16.561Z,54.19
2023-05-21T03:25:46.313Z,55.57
2023-05-21T03:28:14.171Z,58.06
2023-05-21T03:30:42.324Z,60.02
2023-05-21T03:33:11.462Z,61.47
2023-05-21T03:35:39.390Z,65.43
2023-05-21T03:38:07.157Z,59.78
2023-05-21T03:40:35.021Z,53.89
2023-05-21T03:43:02.782Z,55.51
2023-05-21T03:45:30.757Z,58.02
2023-05-21T03:47:58.778Z,60.13
2023-05-21T03:50:26.706Z,61.56
2023-05-21T03:52:54.562Z,65.47
2023-05-21T03:55:22.324Z,59.88
2023-05-21T03:57:50.195Z,54.42
2023-05-21T04:00:18.157Z,55.79
2023-05-21T04:02:46.089Z,57.99
2023-05-21T04:05:14.097Z,59.90
2023-05-21T04:07:43.191Z,61.23
2023-05-21T04:10:11.069Z,62.07
2023-05-21T04:12:38.925Z,66.30
2023-05-21T04:15:06.792Z,59.99
2023-05-21T04:17:35.705Z,54.21
2023-05-21T04:20:04.268Z,55.49
2023-05-21T04:22:32.143Z,57.38
2023-05-21T04:25:00.004Z,59.29
2023-05-21T04:27:27.867Z,60.44
2023-05-21T04:29:55.629Z,61.57
2023-05-21T04:32:23.531Z,65.80
2023-05-21T04:34:51.375Z,60.29
2023-05-21T04:37:19.227Z,53.85
2023-05-21T04:39:47.199Z,55.15
2023-05-21T04:42:14.964Z,57.46
2023-05-21T04:44:44.860Z,58.94
2023-05-21T04:47:15.199Z,60.22
2023-05-21T04:49:42.970Z,61.15
2023-05-21T04:52:10.803Z,64.89
2023-05-21T04:54:39.234Z,60.31
2023-05-21T04:57:07.199Z,53.74
2023-05-21T04:59:34.947Z,54.59
2023-05-21T05:02:03.026Z,56.69
2023-05-21T05:04:30.986Z,58.48
2023-05-21T05:06:58.774Z,59.72
2023-05-21T05:09:26.621Z,60.77
2023-05-21T05:11:54.268Z,61.20
2023-05-21T05:14:22.045Z,65.54
2023-05-21T05:16:49.859Z,59.62
2023-05-21T05:19:17.763Z,53.45
2023-05-21T05:21:45.951Z,54.21
2023-05-21T05:24:13.717Z,56.11
2023-05-21T05:26:41.481Z,57.58
2023-05-21T05:29:09.246Z,59.18
2023-05-21T05:31:37.010Z,60.16
2023-05-21T05:34:04.774Z,60.72
2023-05-21T05:36:32.540Z,61.25
2023-05-21T05:39:00.306Z,66.35
2023-05-21T05:41:28.064Z,61.09
2023-05-21T05:43:55.931Z,53.86
2023-05-21T05:46:23.786Z,53.95
2023-05-21T05:48:51.767Z,55.74
2023-05-21T05:51:19.652Z,57.54
2023-05-21T05:53:47.599Z,58.94
2023-05-21T05:56:17.424Z,59.90
2023-05-21T05:58:45.287Z,60.81
2023-05-21T06:01:13.768Z,65.15
2023-05-21T06:03:41.668Z,59.85
2023-05-21T06:06:09.662Z,53.71
2023-05-21T06:08:38.498Z,54.46
2023-05-21T06:11:06.454Z,55.81
2023-05-21T06:13:34.336Z,57.36
2023-05-21T06:16:02.106Z,58.10
2023-05-21T06:18:29.956Z,58.82
2023-05-21T06:20:58.027Z,59.66
2023-05-21T06:23:25.994Z,60.52
2023-05-21T06:25:53.762Z,60.99
2023-05-21T06:28:21.520Z,65.92
2023-05-21T06:30:49.313Z,60.58
2023-05-21T06:33:17.253Z,53.51
2023-05-21T06:35:45.126Z,53.64
2023-05-21T06:38:12.936Z,54.87
2023-05-21T06:40:40.755Z,56.49
2023-05-21T06:43:08.519Z,57.78
2023-05-21T06:45:37.073Z,58.43
2023-05-21T06:48:05.107Z,59.61
2023-05-21T06:50:32.941Z,60.28
2023-05-21T06:53:00.955Z,60.69
2023-05-21T06:55:28.777Z,65.12
2023-05-21T06:57:56.641Z,60.23
2023-05-21T07:00:24.443Z,53.32
2023-05-21T07:02:52.377Z,53.77
2023-05-21T07:05:20.443Z,55.52
2023-05-21T07:07:48.214Z,56.92
2023-05-21T07:10:15.982Z,58.12
2023-05-21T07:12:43.741Z,58.44
2023-05-21T07:15:11.501Z,59.26
2023-05-21T07:17:39.496Z,60.67
2023-05-21T07:20:08.051Z,60.68
2023-05-21T07:22:35.731Z,65.65
2023-05-21T07:25:03.599Z,61.01
2023-05-21T07:27:31.246Z,53.64
2023-05-21T07:29:58.962Z,53.54
2023-05-21T07:32:29.370Z,55.17
2023-05-21T07:34:57.209Z,56.14
2023-05-21T07:37:25.809Z,57.36
2023-05-21T07:39:53.645Z,58.06
2023-05-21T07:42:21.413Z,58.76
2023-05-21T07:44:49.176Z,59.57
2023-05-21T07:47:16.990Z,60.27
2023-05-21T07:49:44.820Z,65.09
2023-05-21T07:52:12.487Z,60.35
2023-05-21T07:54:40.442Z,54.15
2023-05-21T07:57:08.276Z,54.10
2023-05-21T07:59:35.962Z,55.11
2023-05-21T08:02:03.617Z,56.49
2023-05-21T08:04:31.676Z,57.04
2023-05-21T08:06:59.413Z,58.33
2023-05-21T08:09:27.260Z,58.58
2023-05-21T08:11:54.932Z,59.24
2023-05-21T08:14:22.593Z,59.80
2023-05-21T08:16:50.556Z,60.34
2023-05-21T08:19:18.447Z,64.98
2023-05-21T08:21:46.569Z,59.87
2023-05-21T08:24:14.332Z,52.79
2023-05-21T08:26:42.110Z,53.63
2023-05-21T08:29:09.970Z,54.35
2023-05-21T08:31:37.851Z,56.79
2023-05-21T08:34:05.693Z,56.80
2023-05-21T08:36:33.459Z,57.45
2023-05-21T08:39:01.432Z,58.38
2023-05-21T08:41:29.192Z,58.77
2023-05-21T08:43:57.981Z,58.88
2023-05-21T08:46:26.007Z,58.87
2023-05-21T08:48:57.295Z,59.30
2023-05-21T08:51:25.009Z,59.38
2023-05-21T08:53:52.826Z,60.18
2023-05-21T08:56:20.584Z,65.19
2023-05-21T08:58:48.477Z,57.20
2023-05-21T09:01:19.602Z,52.38
2023-05-21T09:03:47.683Z,53.38
2023-05-21T09:06:15.433Z,52.91
2023-05-21T09:08:43.211Z,54.25
2023-05-21T09:11:11.016Z,55.96
2023-05-21T09:13:39.209Z,56.07
2023-05-21T09:16:07.006Z,55.68
2023-05-21T09:18:34.762Z,56.46
2023-05-21T09:21:02.528Z,55.83
2023-05-21T09:23:30.396Z,56.43
2023-05-21T09:25:58.160Z,57.96
2023-05-21T09:28:25.924Z,57.83
2023-05-21T09:30:54.468Z,58.08
2023-05-21T09:33:23.212Z,58.13
2023-05-21T09:35:50.878Z,59.40
2023-05-21T09:38:18.543Z,58.29
2023-05-21T09:40:49.135Z,58.39
2023-05-21T09:43:16.820Z,57.83
2023-05-21T09:45:44.622Z,58.37
2023-05-21T09:48:12.853Z,58.96
2023-05-21T09:50:40.531Z,57.66
2023-05-21T09:53:08.184Z,58.31
2023-05-21T09:55:35.821Z,58.00
2023-05-21T09:58:04.865Z,58.77
2023-05-21T10:00:32.564Z,59.00
2023-05-21T10:03:00.291Z,57.92
2023-05-21T10:05:31.413Z,57.38
2023-05-21T10:07:59.290Z,56.20
2023-05-21T10:10:27.034Z,56.92
2023-05-21T10:12:54.808Z,56.40
2023-05-21T10:15:22.557Z,56.04
2023-05-21T10:17:50.844Z,56.45
2023-05-21T10:20:19.134Z,56.43
2023-05-21T10:22:46.887Z,55.07
2023-05-21T10:25:14.741Z,54.97
2023-05-21T10:27:42.508Z,53.82
2023-05-21T10:30:10.476Z,53.49
2023-05-21T10:32:38.481Z,53.33
2023-05-21T10:35:06.933Z,52.82
2023-05-21T10:37:34.743Z,52.39
2023-05-21T10:40:02.982Z,52.77
2023-05-21T10:42:30.670Z,52.33
2023-05-21T10:44:58.498Z,51.41
2023-05-21T10:47:27.153Z,53.51
2023-05-21T10:49:54.882Z,53.15
2023-05-21T10:52:22.550Z,50.53
2023-05-21T10:54:50.371Z,51.21
2023-05-21T10:57:18.143Z,51.06
2023-05-21T10:59:46.116Z,51.39
2023-05-21T11:02:13.847Z,49.29
2023-05-21T11:04:43.491Z,50.44
2023-05-21T11:07:11.195Z,49.38
2023-05-21T11:09:38.874Z,49.78
2023-05-21T11:12:08.525Z,49.66
2023-05-21T11:14:36.760Z,49.53
2023-05-21T11:17:04.812Z,49.25
2023-05-21T11:19:34.315Z,48.95
2023-05-21T11:22:02.180Z,47.57
2023-05-21T11:24:29.849Z,47.85
2023-05-21T11:26:58.791Z,49.13
2023-05-21T11:29:29.985Z,48.61
2023-05-21T11:32:04.441Z,49.38
2023-05-21T11:34:40.959Z,47.96
2023-05-21T11:37:09.815Z,49.28
2023-05-21T11:39:40.542Z,47.90
2023-05-21T11:42:08.412Z,46.69
2023-05-21T11:44:36.153Z,47.32
2023-05-21T11:47:04.042Z,48.09
2023-05-21T11:49:31.909Z,46.61
2023-05-21T11:52:00.390Z,46.23
2023-05-21T11:54:29.689Z,46.29
2023-05-21T11:56:57.456Z,45.68
2023-05-21T11:59:25.173Z,47.61
2023-05-21T12:01:52.982Z,45.55
2023-05-21T12:04:21.059Z,46.03
2023-05-21T12:06:50.798Z,47.13
2023-05-21T12:09:18.506Z,45.54
2023-05-21T12:11:46.520Z,45.41
2023-05-21T12:14:14.295Z,46.26
2023-05-21T12:16:42.294Z,45.89
2023-05-21T12:19:10.108Z,45.34
2023-05-21T12:21:37.812Z,45.37
2023-05-21T12:24:05.544Z,45.41
2023-05-21T12:26:33.342Z,45.11
2023-05-21T12:29:01.170Z,44.86
2023-05-21T12:31:28.883Z,45.69
2023-05-21T12:33:56.578Z,44.50
2023-05-21T12:36:24.267Z,45.77
2023-05-21T12:38:52.240Z,43.79
2023-05-21T12:41:19.925Z,44.61
2023-05-21T12:43:47.571Z,43.81
2023-05-21T12:46:17.414Z,43.85
2023-05-21T12:48:45.234Z,45.12
2023-05-21T12:51:12.930Z,45.10
2023-05-21T12:53:40.622Z,43.59
2023-05-21T12:56:08.263Z,44.14
2023-05-21T12:58:38.422Z,43.83
2023-05-21T13:01:06.261Z,44.38
2023-05-21T13:03:33.988Z,43.76
2023-05-21T13:06:01.690Z,44.27
2023-05-21T13:08:29.608Z,44.37
2023-05-21T13:10:57.641Z,44.72
2023-05-21T13:13:25.532Z,44.40
2023-05-21T13:15:53.377Z,43.98
2023-05-21T13:18:21.223Z,43.79
2023-05-21T13:20:49.024Z,44.11
2023-05-21T13:23:16.757Z,43.49
2023-05-21T13:25:44.506Z,43.04
2023-05-21T13:28:15.208Z,42.51
2023-05-21T13:30:43.006Z,43.24
2023-05-21T13:33:11.838Z,43.57
2023-05-21T13:35:39.706Z,44.52
2023-05-21T13:38:07.404Z,43.61
2023-05-21T13:40:37.328Z,43.87
2023-05-21T13:43:06.573Z,42.77
2023-05-21T13:45:34.272Z,44.21
2023-05-21T13:48:01.999Z,43.52
2023-05-21T13:50:29.722Z,43.53
2023-05-21T13:52:57.393Z,43.99
2023-05-21T13:55:25.069Z,43.95
2023-05-21T13:57:52.815Z,43.81
2023-05-21T14:00:20.521Z,42.68
2023-05-21T14:02:48.346Z,42.02
2023-05-21T14:05:16.299Z,42.77
2023-05-21T14:07:43.973Z,43.50
2023-05-21T14:10:12.041Z,43.26
2023-05-21T14:12:41.057Z,42.70
2023-05-21T14:15:09.156Z,43.10
2023-05-21T14:17:36.950Z,42.59
2023-05-21T14:20:05.072Z,42.56
2023-05-21T14:22:32.959Z,42.42
2023-05-21T14:25:01.127Z,42.45
2023-05-21T14:27:28.887Z,43.19
2023-05-21T14:29:56.756Z,43.37
2023-05-21T14:32:24.793Z,42.84
2023-05-21T14:34:52.798Z,41.48
2023-05-21T14:37:20.562Z,42.48
2023-05-21T14:39:48.536Z,42.78
2023-05-21T14:42:16.294Z,42.91
2023-05-21T14:44:44.056Z,43.75
2023-05-21T14:47:11.931Z,42.02
2023-05-21T14:49:39.791Z,41.69
2023-05-21T14:52:07.968Z,42.15
2023-05-21T14:54:36.554Z,41.92
2023-05-21T14:57:04.426Z,41.72
2023-05-21T14:59:32.278Z,41.10
2023-05-21T15:02:00.142Z,41.83
2023-05-21T15:04:28.220Z,41.88
2023-05-21T15:06:56.080Z,42.39
2023-05-21T15:09:23.845Z,40.94
2023-05-21T15:11:53.756Z,42.42
2023-05-21T15:14:21.728Z,41.95
2023-05-21T15:16:49.524Z,41.90
2023-05-21T15:19:17.622Z,41.30
2023-05-21T15:21:45.544Z,41.08
2023-05-21T15:24:13.609Z,41.76
2023-05-21T15:26:41.884Z,40.95
2023-05-21T15:29:09.544Z,40.81
2023-05-21T15:31:37.440Z,41.11
2023-05-21T15:34:05.481Z,41.04
2023-05-21T15:36:33.352Z,40.76
2023-05-21T15:39:03.923Z,40.44
2023-05-21T15:41:31.748Z,41.65
2023-05-21T15:43:59.460Z,41.69
2023-05-21T15:46:27.288Z,41.48
2023-05-21T15:48:55.149Z,41.29
2023-05-21T15:51:23.007Z,42.39
2023-05-21T15:53:50.877Z,41.42
2023-05-21T15:56:18.951Z,41.23
2023-05-21T15:58:46.936Z,40.34
2023-05-21T16:01:14.936Z,40.25
2023-05-21T16:03:42.890Z,39.90
2023-05-21T16:06:10.926Z,39.84
2023-05-21T16:08:38.692Z,39.15
2023-05-21T16:11:06.676Z,40.22
2023-05-21T16:13:34.428Z,40.17
2023-05-21T16:16:02.191Z,40.28
2023-05-21T16:18:30.059Z,39.89
2023-05-21T16:20:57.838Z,39.01
2023-05-21T16:23:26.103Z,39.78
2023-05-21T16:25:53.966Z,39.57
2023-05-21T16:28:24.550Z,40.39
2023-05-21T16:30:52.237Z,39.68
2023-05-21T16:33:19.958Z,40.40
2023-05-21T16:35:47.612Z,40.26
2023-05-21T16:38:15.510Z,40.65
2023-05-21T16:40:43.213Z,41.03
2023-05-21T16:43:10.934Z,41.24
2023-05-21T16:45:38.782Z,41.49
2023-05-21T16:48:06.813Z,42.60
2023-05-21T16:50:34.623Z,43.11
2023-05-21T16:53:06.834Z,42.72
2023-05-21T16:55:34.694Z,42.23
2023-05-21T16:58:02.746Z,42.09
2023-05-21T17:00:30.883Z,42.29
2023-05-21T17:02:58.733Z,42.14
2023-05-21T17:05:26.645Z,42.03
2023-05-21T17:07:55.385Z,42.44
2023-05-21T17:10:23.039Z,42.32
2023-05-21T17:12:51.056Z,42.02
2023-05-21T17:15:18.767Z,42.57
2023-05-21T17:17:46.537Z,42.19
2023-05-21T17:20:14.617Z,42.87
2023-05-21T17:22:42.363Z,42.58
2023-05-21T17:25:10.071Z,42.59
2023-05-21T17:27:38.047Z,42.97
2023-05-21T17:30:05.883Z,43.39
2023-05-21T17:32:33.768Z,43.79
2023-05-21T17:35:01.460Z,43.33
2023-05-21T17:37:29.241Z,44.25
2023-05-21T17:39:57.969Z,45.42
2023-05-21T17:42:25.738Z,45.49
2023-05-21T17:44:53.445Z,46.25
2023-05-21T17:47:21.240Z,46.66
2023-05-21T17:49:48.905Z,46.66
2023-05-21T17:52:16.631Z,47.20
2023-05-21T17:54:44.308Z,47.22
2023-05-21T17:57:12.314Z,47.66
2023-05-21T17:59:45.188Z,47.82
2023-05-21T18:02:13.049Z,48.30
2023-05-21T18:04:41.119Z,48.22
2023-05-21T18:07:08.945Z,48.67
2023-05-21T18:09:36.853Z,48.59
2023-05-21T18:12:05.953Z,49.32
2023-05-21T18:14:34.228Z,49.15
2023-05-21T18:17:02.044Z,48.79
2023-05-21T18:19:32.406Z,48.98
2023-05-21T18:22:00.164Z,50.46
2023-05-21T18:24:27.945Z,49.43
2023-05-21T18:26:56.463Z,50.33
2023-05-21T18:29:24.279Z,49.68
2023-05-21T18:31:52.046Z,50.09
2023-05-21T18:34:19.892Z,50.37
2023-05-21T18:36:48.371Z,50.84
2023-05-21T18:39:16.143Z,51.12
2023-05-21T18:41:43.822Z,51.89
2023-05-21T18:44:11.480Z,51.66
2023-05-21T18:46:39.724Z,51.46
2023-05-21T18:49:07.562Z,51.43
2023-05-21T18:51:35.240Z,51.29
2023-05-21T18:54:03.073Z,51.57
2023-05-21T18:56:31.037Z,52.16
2023-05-21T18:58:58.764Z,53.42
2023-05-21T19:01:26.549Z,52.50
2023-05-21T19:03:54.274Z,53.12
2023-05-21T19:06:25.821Z,52.87
2023-05-21T19:08:53.507Z,52.50
2023-05-21T19:11:23.656Z,52.79
2023-05-21T19:13:51.615Z,53.15
2023-05-21T19:16:19.451Z,52.93
2023-05-21T19:18:47.191Z,53.06
2023-05-21T19:21:14.891Z,54.30
2023-05-21T19:23:52.569Z,55.34
2023-05-21T19:26:22.523Z,55.95
2023-05-21T19:28:54.689Z,55.82
2023-05-21T19:31:22.793Z,54.90
2023-05-21T19:33:50.994Z,56.51
2023-05-21T19:36:19.119Z,55.96
2023-05-21T19:38:48.420Z,56.88
2023-05-21T19:41:16.299Z,57.26
2023-05-21T19:43:44.004Z,56.58
2023-05-21T19:46:11.807Z,56.66
2023-05-21T19:48:39.666Z,57.28
2023-05-21T19:51:07.466Z,56.91
2023-05-21T19:53:35.453Z,57.73
2023-05-21T19:56:03.312Z,58.11
2023-05-21T19:58:31.685Z,57.63
2023-05-21T20:00:59.591Z,57.33
2023-05-21T20:03:28.187Z,57.16
2023-05-21T20:05:56.096Z,57.03
2023-05-21T20:08:24.028Z,57.79
2023-05-21T20:10:52.208Z,57.91
2023-05-21T20:13:19.993Z,58.26
2023-05-21T20:15:50.565Z,58.21
2023-05-21T20:18:20.331Z,58.65
2023-05-21T20:20:47.990Z,58.68
2023-05-21T20:23:15.782Z,58.87
2023-05-21T20:25:43.581Z,58.64
2023-05-21T20:28:11.243Z,58.62
2023-05-21T20:30:39.108Z,58.42
2023-05-21T20:33:07.063Z,58.80
2023-05-21T20:35:34.996Z,58.73
2023-05-21T20:38:02.779Z,58.76
2023-05-21T20:40:30.450Z,59.41
2023-05-21T20:42:58.918Z,59.68
2023-05-21T20:45:29.740Z,59.44
2023-05-21T20:47:57.967Z,59.24
2023-05-21T20:50:26.087Z,58.80
2023-05-21T20:52:53.912Z,59.07
2023-05-21T20:55:21.621Z,59.00
2023-05-21T20:57:49.267Z,58.86
2023-05-21T21:00:17.261Z,58.84
2023-05-21T21:02:45.260Z,58.96
2023-05-21T21:05:13.371Z,58.87
2023-05-21T21:07:42.165Z,59.11
2023-05-21T21:10:09.930Z,58.65
2023-05-21T21:12:37.636Z,58.51
2023-05-21T21:15:05.614Z,58.67
2023-05-21T21:17:33.554Z,58.52
2023-05-21T21:20:01.398Z,58.22
2023-05-21T21:22:29.164Z,58.46
2023-05-21T21:24:57.027Z,58.49
2023-05-21T21:27:24.790Z,58.21
2023-05-21T21:29:52.555Z,58.27
2023-05-21T21:32:20.421Z,58.28
2023-05-21T21:34:48.286Z,58.32
2023-05-21T21:37:16.458Z,58.16
2023-05-21T21:39:44.330Z,58.34
2023-05-21T21:42:12.096Z,58.35
2023-05-21T21:44:39.857Z,58.55
2023-05-21T21:47:07.638Z,59.03
2023-05-21T21:49:35.594Z,59.17
2023-05-21T21:52:03.413Z,59.01
2023-05-21T21:54:31.074Z,58.92
2023-05-21T21:56:58.888Z,59.19
2023-05-21T21:59:26.649Z,59.75
2023-05-21T22:01:57.460Z,59.85
2023-05-21T22:04:25.269Z,59.77
2023-05-21T22:06:53.854Z,59.83
2023-05-21T22:09:22.780Z,60.24
2023-05-21T22:11:50.959Z,59.51
2023-05-21T22:14:19.579Z,59.35
2023-05-21T22:16:53.442Z,59.78
2023-05-21T22:19:22.278Z,59.78
2023-05-21T22:21:50.364Z,60.52
2023-05-21T22:24:30.893Z,60.19
2023-05-21T22:26:59.613Z,60.21
2023-05-21T22:29:27.485Z,60.34
2023-05-21T22:31:55.245Z,59.87
2023-05-21T22:34:25.549Z,60.16
2023-05-21T22:36:53.323Z,60.28
2023-05-21T22:39:21.106Z,60.17
2023-05-21T22:41:48.959Z,60.08
2023-05-21T22:44:16.724Z,59.79
2023-05-21T22:46:44.637Z,60.00
2023-05-21T22:49:12.454Z,60.17
2023-05-21T22:51:45.060Z,60.05
2023-05-21T22:54:12.921Z,60.16
2023-05-21T22:56:40.969Z,59.73
2023-05-21T22:59:08.734Z,59.87
2023-05-21T23:01:38.367Z,59.23
2023-05-21T23:04:06.415Z,59.40
2023-05-21T23:06:34.175Z,59.25
2023-05-21T23:09:01.941Z,59.30
2023-05-21T23:11:29.707Z,60.00
2023-05-21T23:13:57.465Z,59.90
2023-05-21T23:16:25.739Z,59.82
2023-05-21T23:18:54.675Z,59.90
2023-05-21T23:21:22.529Z,59.83
2023-05-21T23:23:50.372Z,59.78
2023-05-21T23:26:18.235Z,59.69
2023-05-21T23:28:46.005Z,59.95
2023-05-21T23:31:13.754Z,59.61
2023-05-21T23:33:41.731Z,59.88
2023-05-21T23:36:09.492Z,59.40
2023-05-21T23:38:37.262Z,59.49
2023-05-21T23:41:05.038Z,59.45
2023-05-21T23:43:32.791Z,59.61
2023-05-21T23:46:00.628Z,59.49
2023-05-21T23:48:28.474Z,59.48
2023-05-21T23:50:56.285Z,59.27
2023-05-21T23:53:24.051Z,58.89
2023-05-21T23:55:51.754Z,59.15
2023-05-21T23:58:19.399Z,58.89
